Mowrystown, Ohio
Current Conditions -  °F | °C
As of 1:54 PM on Friday 24 Oct 2014 (Local Time) from KILN Reporting Station
Clear Clear  
Wind Chill: 62°   Ceiling: Unl
Heat Index: 62°   Visibility: 10mi
Dew Point: 39°   Wind: 6mph
Humidity: 43%   Direction: 290°WNW
Pressure: 30.07"   Gusts: NA
Location:  39.04°N, 83.75°W
Report Text: KILN 241754Z AUTO 29005KT 10SM CLR 17/04 A3007 RMK AO2 SLP193 T01670039 10167 20050 58015
Loading
Personal Weather Stations






























Interactive Weather Map
Tropical Storm Tracking
New forecast layout! Learn more

10-Day Weather Forecast

Advertisements
Track Severe Weather on mobile